Time;durP1;ratioP1;P1;durP2;ratioP2;P2;SDS_P1;SDS_P2;PMS_P1;PMS_P2;Temp;Humidity;BMP_temperature;BMP_pressure;BME280_temperature;BME280_humidity;BME280_pressure;Samples;Min_cycle;Max_cycle;Signal;HPM_P1;HPM_P2
2021/10/26 00:00:15;;;;;;;17.58;8.93;;;;;;;;;;5004577;28;20060;-72
2021/10/26 00:02:41;;;;;;;18.95;10.25;;;;;;;;;;5015086;28;20473;-72
2021/10/26 00:05:09;;;;;;;16.48;10.13;;;;;;;;;;5005071;28;20048;-72
2021/10/26 00:07:35;;;;;;;15.07;10.43;;;;;;;;;;5005967;28;20033;-72
2021/10/26 00:10:01;;;;;;;16.85;10.05;;;;;;;;;;5007722;28;20681;-72
2021/10/26 00:12:27;;;;;;;20.40;13.30;;;;;;;;;;5008019;28;20053;-72
2021/10/26 00:14:54;;;;;;;19.60;14.25;;;;;;;;;;5005421;28;20076;-72
2021/10/26 00:17:21;;;;;;;21.60;14.07;;;;;;;;;;5005870;28;20021;-72
2021/10/26 00:19:47;;;;;;;16.10;9.45;;;;;;;;;;5006249;28;20029;-72
2021/10/26 00:22:13;;;;;;;16.02;8.50;;;;;;;;;;5007812;28;20029;-72
2021/10/26 00:24:39;;;;;;;11.57;7.88;;;;;;;;;;5006619;28;20038;-71
2021/10/26 00:27:05;;;;;;;14.23;9.68;;;;;;;;;;5012513;28;20069;-72
2021/10/26 00:29:31;;;;;;;15.00;10.05;;;;;;;;;;5006322;28;20041;-72
2021/10/26 00:31:57;;;;;;;16.55;11.10;;;;;;;;;;5008934;28;20018;-72
2021/10/26 00:34:23;;;;;;;14.88;7.90;;;;;;;;;;5006596;28;20444;-72
2021/10/26 00:36:49;;;;;;;12.88;7.82;;;;;;;;;;5005662;28;20026;-72
2021/10/26 00:39:15;;;;;;;15.70;8.57;;;;;;;;;;5005734;28;20670;-72
2021/10/26 00:41:41;;;;;;;14.13;9.15;;;;;;;;;;5003184;28;20475;-72
2021/10/26 00:44:07;;;;;;;18.38;9.57;;;;;;;;;;5002849;28;20037;-72
2021/10/26 00:46:35;;;;;;;14.18;8.80;;;;;;;;;;5004225;28;20379;-72
2021/10/26 00:49:02;;;;;;;17.15;9.07;;;;;;;;;;5001853;28;20399;-72
2021/10/26 00:51:29;;;;;;;12.95;9.20;;;;;;;;;;5005122;28;20041;-72
2021/10/26 00:53:57;;;;;;;12.95;8.85;;;;;;;;;;5003241;28;20434;-72
2021/10/26 00:56:25;;;;;;;15.98;8.60;;;;;;;;;;5004545;28;20116;-72
2021/10/26 00:58:51;;;;;;;9.27;5.47;;;;;;;;;;4961821;28;1119341;-72
2021/10/26 01:01:18;;;;;;;13.10;5.75;;;;;;;;;;5009438;28;20034;-72
2021/10/26 01:03:44;;;;;;;10.63;5.85;;;;;;;;;;4989832;28;20460;-72
2021/10/26 01:06:10;;;;;;;11.43;6.65;;;;;;;;;;5007390;28;20108;-72
2021/10/26 01:08:36;;;;;;;15.13;6.75;;;;;;;;;;5007910;28;20045;-72
2021/10/26 01:11:03;;;;;;;11.18;6.00;;;;;;;;;;5011112;28;20101;-72
2021/10/26 01:13:29;;;;;;;12.85;6.40;;;;;;;;;;5010089;28;20038;-72
2021/10/26 01:15:57;;;;;;;9.75;5.93;;;;;;;;;;5009354;28;20033;-72
2021/10/26 01:18:24;;;;;;;15.13;7.28;;;;;;;;;;5005490;28;20038;-72
2021/10/26 01:20:50;;;;;;;15.02;7.00;;;;;;;;;;5010090;28;20026;-72
2021/10/26 01:23:16;;;;;;;14.00;7.03;;;;;;;;;;5011478;28;20120;-72
2021/10/26 01:25:42;;;;;;;18.73;8.52;;;;;;;;;;5010521;28;20104;-72
2021/10/26 01:28:10;;;;;;;13.35;8.02;;;;;;;;;;5014648;28;20456;-72
2021/10/26 01:30:36;;;;;;;15.95;8.30;;;;;;;;;;5010470;28;20036;-72
2021/10/26 01:33:03;;;;;;;13.50;7.60;;;;;;;;;;5008952;28;20058;-72
2021/10/26 01:35:29;;;;;;;16.17;8.32;;;;;;;;;;5010584;28;20041;-71
2021/10/26 01:37:55;;;;;;;12.43;6.93;;;;;;;;;;5010543;28;20053;-72
2021/10/26 01:40:21;;;;;;;11.05;6.45;;;;;;;;;;5002133;28;20494;-71
2021/10/26 01:42:48;;;;;;;14.18;7.45;;;;;;;;;;5010583;28;20454;-72
2021/10/26 01:45:15;;;;;;;13.90;8.68;;;;;;;;;;5008645;28;20036;-72
2021/10/26 01:47:41;;;;;;;12.35;8.00;;;;;;;;;;5010156;28;20046;-72
2021/10/26 01:50:08;;;;;;;13.13;8.48;;;;;;;;;;5005057;28;20387;-72
2021/10/26 01:52:34;;;;;;;12.38;8.32;;;;;;;;;;5010308;28;20034;-72
2021/10/26 01:55:00;;;;;;;15.43;9.63;;;;;;;;;;5007424;28;20038;-72
2021/10/26 01:57:28;;;;;;;12.18;8.18;;;;;;;;;;5017291;28;20402;-72
2021/10/26 01:59:56;;;;;;;11.32;6.90;;;;;;;;;;5007547;28;20026;-71
2021/10/26 02:02:22;;;;;;;10.95;4.88;;;;;;;;;;5011214;28;20459;-72
2021/10/26 02:04:48;;;;;;;11.35;5.40;;;;;;;;;;5005075;28;20057;-72
2021/10/26 02:07:14;;;;;;;9.48;6.18;;;;;;;;;;5006930;28;20083;-72
2021/10/26 02:09:40;;;;;;;12.93;6.20;;;;;;;;;;5007321;28;20034;-72
2021/10/26 02:12:06;;;;;;;11.00;6.43;;;;;;;;;;5007219;28;20030;-72
2021/10/26 02:14:33;;;;;;;13.82;7.03;;;;;;;;;;5009595;28;20060;-72
2021/10/26 02:17:01;;;;;;;13.90;7.72;;;;;;;;;;5007127;28;20026;-72
2021/10/26 02:19:27;;;;;;;15.40;7.43;;;;;;;;;;5008407;28;20041;-72
2021/10/26 02:21:53;;;;;;;14.95;7.50;;;;;;;;;;5004165;28;20029;-72
2021/10/26 02:24:19;;;;;;;14.85;8.45;;;;;;;;;;5009151;28;20034;-72
2021/10/26 02:26:46;;;;;;;13.15;8.00;;;;;;;;;;5003483;28;20029;-72
2021/10/26 02:29:12;;;;;;;15.15;8.30;;;;;;;;;;5008986;28;20117;-72
2021/10/26 02:31:38;;;;;;;12.73;7.82;;;;;;;;;;5006634;28;20030;-72
2021/10/26 02:34:04;;;;;;;14.93;7.32;;;;;;;;;;5008859;28;20076;-72
2021/10/26 02:36:31;;;;;;;12.77;8.27;;;;;;;;;;5004056;28;20116;-71
2021/10/26 02:38:57;;;;;;;15.07;7.57;;;;;;;;;;5009134;28;20129;-72
2021/10/26 02:41:23;;;;;;;16.40;7.85;;;;;;;;;;5003839;28;20095;-71
2021/10/26 02:43:49;;;;;;;11.27;7.45;;;;;;;;;;5009830;28;20491;-72
2021/10/26 02:46:15;;;;;;;11.02;7.25;;;;;;;;;;5003449;28;20735;-72
2021/10/26 02:48:42;;;;;;;13.18;6.65;;;;;;;;;;5008730;28;20040;-72
2021/10/26 02:51:08;;;;;;;11.02;5.90;;;;;;;;;;5005985;28;20801;-72
2021/10/26 02:53:34;;;;;;;10.25;5.57;;;;;;;;;;5008228;28;20615;-72
2021/10/26 02:56:00;;;;;;;12.27;5.10;;;;;;;;;;5008772;28;20038;-72
2021/10/26 02:58:26;;;;;;;9.43;5.20;;;;;;;;;;5006751;28;20089;-72
2021/10/26 03:00:52;;;;;;;9.60;4.97;;;;;;;;;;5008631;28;20049;-72
2021/10/26 03:03:18;;;;;;;13.57;6.65;;;;;;;;;;5012498;28;20044;-72
2021/10/26 03:05:45;;;;;;;13.98;6.20;;;;;;;;;;5008547;28;20038;-72
2021/10/26 03:08:11;;;;;;;12.63;5.38;;;;;;;;;;5008112;28;20057;-72
2021/10/26 03:10:38;;;;;;;12.95;6.28;;;;;;;;;;5008546;28;20033;-72
2021/10/26 03:13:04;;;;;;;10.68;5.13;;;;;;;;;;5004774;28;20046;-72
2021/10/26 03:15:30;;;;;;;10.82;4.95;;;;;;;;;;5008415;28;20034;-72
2021/10/26 03:17:57;;;;;;;8.65;4.63;;;;;;;;;;5009042;28;20064;-71
2021/10/26 03:20:23;;;;;;;10.23;4.88;;;;;;;;;;5008228;28;20479;-71
2021/10/26 03:22:49;;;;;;;12.27;5.18;;;;;;;;;;5006923;28;20419;-72
2021/10/26 03:25:15;;;;;;;10.55;5.25;;;;;;;;;;5014798;28;20034;-72
2021/10/26 03:27:41;;;;;;;11.25;5.45;;;;;;;;;;5004673;28;20444;-72
2021/10/26 03:30:08;;;;;;;9.60;5.15;;;;;;;;;;5016081;28;20076;-72
2021/10/26 03:32:34;;;;;;;10.05;5.20;;;;;;;;;;5006415;28;20050;-71
2021/10/26 03:35:00;;;;;;;10.23;5.97;;;;;;;;;;5016151;28;20080;-72
2021/10/26 03:37:26;;;;;;;11.05;5.68;;;;;;;;;;5006743;28;20037;-72
2021/10/26 03:39:56;;;;;;;11.73;6.10;;;;;;;;;;5014235;28;20109;-72
2021/10/26 03:42:25;;;;;;;14.20;6.32;;;;;;;;;;5007593;28;20061;-72
2021/10/26 03:44:52;;;;;;;11.07;6.20;;;;;;;;;;5004364;28;20872;-72
2021/10/26 03:47:18;;;;;;;12.38;7.30;;;;;;;;;;5007554;28;20038;-71
2021/10/26 03:49:44;;;;;;;13.55;8.60;;;;;;;;;;5006062;28;20034;-72
2021/10/26 03:52:10;;;;;;;13.65;7.93;;;;;;;;;;5007808;28;20041;-72
2021/10/26 03:54:37;;;;;;;15.05;8.35;;;;;;;;;;5009220;28;20116;-72
2021/10/26 03:57:07;;;;;;;13.95;7.72;;;;;;;;;;5007585;28;20065;-72
2021/10/26 03:59:33;;;;;;;13.00;7.18;;;;;;;;;;5011933;28;20052;-72
2021/10/26 04:02:04;;;;;;;12.10;6.85;;;;;;;;;;5009545;28;20034;-72
2021/10/26 04:04:30;;;;;;;12.13;6.93;;;;;;;;;;5004241;28;20026;-72
2021/10/26 04:06:56;;;;;;;13.38;7.25;;;;;;;;;;5007655;28;20029;-72
2021/10/26 04:09:31;;;;;;;13.85;7.57;;;;;;;;;;5008026;28;20067;-72
2021/10/26 04:12:18;;;;;;;15.27;8.35;;;;;;;;;;5011788;28;20076;-72
2021/10/26 04:14:43;;;;;;;18.33;10.20;;;;;;;;;;5008093;28;20034;-72
2021/10/26 04:17:09;;;;;;;16.67;10.68;;;;;;;;;;5011061;28;20038;-71
2021/10/26 04:19:35;;;;;;;16.38;10.35;;;;;;;;;;5010579;28;20116;-72
2021/10/26 04:22:01;;;;;;;18.25;11.13;;;;;;;;;;5010486;28;20104;-72
2021/10/26 04:24:27;;;;;;;18.10;10.50;;;;;;;;;;5006804;28;20120;-72
2021/10/26 04:26:53;;;;;;;16.77;9.60;;;;;;;;;;5011760;28;20085;-72
2021/10/26 04:29:19;;;;;;;14.48;8.07;;;;;;;;;;5005838;28;20026;-72
2021/10/26 04:31:45;;;;;;;16.25;9.10;;;;;;;;;;5013779;28;20531;-72
2021/10/26 04:34:11;;;;;;;18.60;10.43;;;;;;;;;;5006747;28;20058;-71
2021/10/26 04:36:37;;;;;;;15.10;8.77;;;;;;;;;;5015357;28;20069;-72
2021/10/26 04:39:04;;;;;;;11.10;7.25;;;;;;;;;;5006988;28;20034;-71
2021/10/26 04:41:33;;;;;;;9.77;6.13;;;;;;;;;;5010752;28;20045;-72
2021/10/26 04:43:59;;;;;;;13.02;6.68;;;;;;;;;;5007292;28;20038;-72
2021/10/26 04:46:25;;;;;;;10.10;6.05;;;;;;;;;;5011034;28;20030;-72
2021/10/26 04:48:51;;;;;;;14.32;7.00;;;;;;;;;;5007226;28;20402;-72
2021/10/26 04:51:17;;;;;;;13.32;6.85;;;;;;;;;;5011866;28;20112;-72
2021/10/26 04:53:43;;;;;;;18.77;7.95;;;;;;;;;;5007158;28;20108;-72
2021/10/26 04:56:09;;;;;;;20.77;11.98;;;;;;;;;;5012188;28;20368;-72
2021/10/26 04:58:35;;;;;;;16.90;10.77;;;;;;;;;;5008098;28;20045;-72
2021/10/26 05:01:01;;;;;;;15.85;9.32;;;;;;;;;;5008644;28;20467;-72
2021/10/26 05:03:28;;;;;;;18.77;9.63;;;;;;;;;;5011547;28;20560;-71
2021/10/26 05:05:54;;;;;;;18.27;9.05;;;;;;;;;;5007849;28;20040;-72
2021/10/26 05:08:20;;;;;;;13.40;9.65;;;;;;;;;;5007917;28;20033;-72
2021/10/26 05:10:46;;;;;;;16.00;9.20;;;;;;;;;;5008896;28;20037;-72
2021/10/26 05:13:12;;;;;;;12.55;7.80;;;;;;;;;;5009079;28;20030;-72
2021/10/26 05:15:38;;;;;;;13.80;8.90;;;;;;;;;;5005136;28;20069;-72
2021/10/26 05:18:04;;;;;;;21.52;12.68;;;;;;;;;;5001292;28;21572;-71
2021/10/26 05:20:33;;;;;;;15.50;10.25;;;;;;;;;;5005204;28;20471;-72
2021/10/26 05:22:59;;;;;;;15.27;9.05;;;;;;;;;;5015123;28;20132;-72
2021/10/26 05:25:25;;;;;;;15.75;8.43;;;;;;;;;;5004823;28;20116;-72
2021/10/26 05:27:51;;;;;;;19.23;9.10;;;;;;;;;;5001762;28;20038;-72
2021/10/26 05:30:17;;;;;;;16.80;8.88;;;;;;;;;;5004319;28;20034;-72
2021/10/26 05:32:43;;;;;;;12.80;8.27;;;;;;;;;;5001798;28;20439;-72
2021/10/26 05:35:09;;;;;;;15.73;8.48;;;;;;;;;;5005828;28;20053;-72
2021/10/26 05:37:36;;;;;;;20.05;9.25;;;;;;;;;;5009411;28;20340;-72
2021/10/26 05:40:02;;;;;;;17.70;9.40;;;;;;;;;;5000067;28;20033;-72
2021/10/26 05:42:28;;;;;;;16.17;9.02;;;;;;;;;;5004927;28;20132;-72
2021/10/26 05:44:54;;;;;;;19.85;9.60;;;;;;;;;;5005235;28;20852;-72
2021/10/26 05:47:20;;;;;;;16.85;9.23;;;;;;;;;;5006733;28;20054;-72
2021/10/26 05:49:46;;;;;;;20.33;10.57;;;;;;;;;;5005596;28;20081;-72
2021/10/26 05:52:12;;;;;;;17.63;9.35;;;;;;;;;;5003969;28;21553;-72
2021/10/26 05:54:38;;;;;;;20.30;9.43;;;;;;;;;;5009180;28;20541;-72
2021/10/26 05:57:05;;;;;;;16.90;9.40;;;;;;;;;;5010388;28;20033;-72
2021/10/26 05:59:30;;;;;;;16.58;8.60;;;;;;;;;;5011699;28;20591;-72
2021/10/26 06:01:57;;;;;;;13.55;7.70;;;;;;;;;;5009176;28;20045;-72
2021/10/26 06:04:24;;;;;;;15.20;8.20;;;;;;;;;;5015910;28;20160;-72
2021/10/26 06:06:50;;;;;;;16.52;8.73;;;;;;;;;;5007070;28;20025;-72
2021/10/26 06:09:17;;;;;;;17.63;9.10;;;;;;;;;;5010469;28;20062;-72
2021/10/26 06:11:47;;;;;;;17.10;8.38;;;;;;;;;;5006971;28;20502;-72
2021/10/26 06:14:13;;;;;;;14.88;7.75;;;;;;;;;;5009268;28;20029;-72
2021/10/26 06:16:41;;;;;;;14.68;8.40;;;;;;;;;;5005533;28;20041;-72
2021/10/26 06:19:07;;;;;;;18.58;9.95;;;;;;;;;;4991547;28;20030;-72
2021/10/26 06:21:33;;;;;;;23.17;9.30;;;;;;;;;;5006219;28;20044;-72
2021/10/26 06:23:59;;;;;;;21.30;10.57;;;;;;;;;;5013064;28;20030;-72
2021/10/26 06:26:26;;;;;;;21.48;10.20;;;;;;;;;;5003346;28;20092;-72
2021/10/26 06:28:52;;;;;;;19.70;9.85;;;;;;;;;;5012961;28;20026;-72
2021/10/26 06:31:19;;;;;;;20.77;10.32;;;;;;;;;;5008160;28;20038;-72
2021/10/26 06:33:45;;;;;;;16.65;9.25;;;;;;;;;;5010463;28;20478;-72
2021/10/26 06:36:11;;;;;;;20.27;9.32;;;;;;;;;;5011033;28;20030;-72
2021/10/26 06:38:38;;;;;;;22.25;10.07;;;;;;;;;;5008476;28;20910;-72
2021/10/26 06:41:04;;;;;;;19.85;8.98;;;;;;;;;;5004222;28;20034;-72
2021/10/26 06:43:31;;;;;;;18.95;9.30;;;;;;;;;;5007961;28;20902;-72
2021/10/26 06:45:57;;;;;;;22.67;10.23;;;;;;;;;;5008468;28;20034;-72
2021/10/26 06:48:23;;;;;;;21.58;9.70;;;;;;;;;;5007723;28;20034;-72
2021/10/26 06:50:49;;;;;;;23.02;9.65;;;;;;;;;;5016884;28;20540;-72
2021/10/26 06:53:16;;;;;;;22.58;9.88;;;;;;;;;;5006886;28;20124;-72
2021/10/26 06:55:43;;;;;;;20.02;9.70;;;;;;;;;;5012768;28;20089;-72
2021/10/26 06:58:09;;;;;;;25.25;10.60;;;;;;;;;;5008023;28;20124;-72
2021/10/26 07:00:35;;;;;;;17.95;9.90;;;;;;;;;;5004416;28;20490;-72
2021/10/26 07:03:04;;;;;;;21.60;10.27;;;;;;;;;;5004556;28;20724;-71
2021/10/26 07:05:34;;;;;;;24.42;10.93;;;;;;;;;;5008230;28;20034;-72
2021/10/26 07:08:00;;;;;;;18.80;9.15;;;;;;;;;;5004163;28;20045;-71
2021/10/26 07:10:26;;;;;;;22.88;9.15;;;;;;;;;;5009643;28;20038;-72
2021/10/26 07:12:53;;;;;;;19.77;10.25;;;;;;;;;;5005476;28;20029;-72
2021/10/26 07:15:19;;;;;;;26.38;10.55;;;;;;;;;;5012261;28;20034;-72
2021/10/26 07:17:45;;;;;;;20.15;9.48;;;;;;;;;;5007167;28;20371;-72
2021/10/26 07:20:13;;;;;;;26.48;8.73;;;;;;;;;;5006474;28;20519;-72
2021/10/26 07:22:40;;;;;;;26.00;9.93;;;;;;;;;;5007436;28;20463;-72
2021/10/26 07:25:09;;;;;;;17.77;9.85;;;;;;;;;;5011580;28;20022;-72
2021/10/26 07:27:36;;;;;;;22.70;10.45;;;;;;;;;;5006096;28;20022;-72
2021/10/26 07:30:02;;;;;;;24.50;10.68;;;;;;;;;;5009604;28;20184;-72
2021/10/26 07:32:28;;;;;;;19.17;9.95;;;;;;;;;;5007074;28;20678;-72
2021/10/26 07:34:54;;;;;;;19.77;9.48;;;;;;;;;;5009274;28;20029;-72
2021/10/26 07:37:24;;;;;;;23.23;10.40;;;;;;;;;;5004188;28;20182;-72
2021/10/26 07:39:52;;;;;;;15.68;9.77;;;;;;;;;;5006895;28;20034;-72
2021/10/26 07:42:18;;;;;;;20.20;10.15;;;;;;;;;;5006451;28;20079;-72
2021/10/26 07:44:45;;;;;;;23.42;10.43;;;;;;;;;;4999442;28;20041;-72
2021/10/26 07:47:13;;;;;;;22.65;9.80;;;;;;;;;;4992615;28;20624;-73
2021/10/26 07:49:39;;;;;;;21.35;9.80;;;;;;;;;;5005195;28;20065;-72
2021/10/26 07:52:06;;;;;;;16.45;9.63;;;;;;;;;;5003926;28;20626;-72
2021/10/26 07:54:32;;;;;;;17.73;9.20;;;;;;;;;;5008294;28;20067;-72
2021/10/26 07:56:58;;;;;;;23.10;10.02;;;;;;;;;;5010950;28;20049;-72
2021/10/26 07:59:25;;;;;;;20.30;9.75;;;;;;;;;;5006918;28;20061;-72
2021/10/26 08:01:51;;;;;;;19.73;10.60;;;;;;;;;;5007585;28;20033;-72
2021/10/26 08:04:17;;;;;;;21.48;9.48;;;;;;;;;;5005565;28;20034;-72
2021/10/26 08:06:47;;;;;;;20.35;9.82;;;;;;;;;;5008857;28;20037;-72
2021/10/26 08:09:17;;;;;;;19.08;9.48;;;;;;;;;;4987742;28;20092;-72
2021/10/26 08:11:43;;;;;;;18.02;9.73;;;;;;;;;;5007807;28;20041;-72
2021/10/26 08:14:10;;;;;;;19.17;9.50;;;;;;;;;;5005292;28;20161;-72
2021/10/26 08:16:36;;;;;;;17.10;9.95;;;;;;;;;;5007805;28;20113;-72
2021/10/26 08:19:03;;;;;;;17.65;10.02;;;;;;;;;;5007009;28;20041;-72
2021/10/26 08:21:29;;;;;;;17.00;9.70;;;;;;;;;;5009771;28;20046;-71
2021/10/26 08:23:56;;;;;;;20.52;10.35;;;;;;;;;;5006324;28;20041;-71
2021/10/26 08:26:35;;;;;;;21.58;10.93;;;;;;;;;;5006534;28;20593;-72
2021/10/26 08:34:11;;;;;;;15.20;9.02;;;;;;;;;;5006850;28;20038;-71
2021/10/26 08:36:38;;;;;;;15.68;8.35;;;;;;;;;;5008163;28;20072;-71
2021/10/26 08:39:05;;;;;;;14.77;8.27;;;;;;;;;;5006680;28;20036;-72
2021/10/26 08:41:33;;;;;;;16.48;8.57;;;;;;;;;;5008211;28;20033;-72
2021/10/26 08:43:59;;;;;;;14.18;8.30;;;;;;;;;;5008140;28;20026;-71
2021/10/26 08:46:25;;;;;;;22.83;9.20;;;;;;;;;;5006026;28;20064;-71
2021/10/26 08:48:52;;;;;;;17.20;9.00;;;;;;;;;;5005507;28;20034;-72
2021/10/26 08:51:22;;;;;;;16.48;8.25;;;;;;;;;;5005742;28;20033;-72
2021/10/26 08:53:48;;;;;;;14.88;6.95;;;;;;;;;;5005118;28;20032;-71
2021/10/26 08:56:14;;;;;;;12.50;5.80;;;;;;;;;;5007792;28;20073;-72
2021/10/26 08:58:40;;;;;;;12.77;5.00;;;;;;;;;;5007842;28;20061;-72
2021/10/26 09:01:06;;;;;;;11.35;5.90;;;;;;;;;;5002010;28;20426;-72
2021/10/26 09:03:35;;;;;;;10.82;4.57;;;;;;;;;;4986920;28;20598;-72
2021/10/26 09:06:02;;;;;;;12.75;4.82;;;;;;;;;;5006735;28;20057;-72
2021/10/26 09:08:28;;;;;;;9.68;4.65;;;;;;;;;;5006077;28;20064;-72
2021/10/26 09:10:58;;;;;;;10.95;5.85;;;;;;;;;;5009740;28;20455;-72
2021/10/26 09:16:40;;;;;;;19.65;9.65;;;;;;;;;;5004311;28;20212;-72
2021/10/26 09:19:11;;;;;;;14.93;7.82;;;;;;;;;;5000435;28;20411;-72
2021/10/26 09:21:37;;;;;;;13.88;7.70;;;;;;;;;;5005880;28;20076;-71
2021/10/26 09:24:07;;;;;;;15.80;8.13;;;;;;;;;;5006406;28;20076;-72
2021/10/26 09:27:06;;;;;;;17.33;8.63;;;;;;;;;;5001906;28;20040;-72
2021/10/26 09:29:47;;;;;;;15.88;8.02;;;;;;;;;;4976058;28;20054;-72
2021/10/26 09:32:16;;;;;;;14.48;6.85;;;;;;;;;;5012621;28;20099;-72
2021/10/26 09:34:43;;;;;;;14.05;7.18;;;;;;;;;;5008210;28;20071;-71
2021/10/26 09:37:09;;;;;;;14.40;7.05;;;;;;;;;;5011581;28;20033;-72
2021/10/26 09:39:35;;;;;;;12.75;7.15;;;;;;;;;;5007339;28;20501;-72
2021/10/26 09:42:03;;;;;;;14.90;7.57;;;;;;;;;;5010837;28;20104;-72
2021/10/26 09:44:37;;;;;;;14.75;7.90;;;;;;;;;;5007998;28;20080;-72
2021/10/26 09:47:05;;;;;;;16.35;7.20;;;;;;;;;;5011284;28;20025;-72
2021/10/26 09:49:36;;;;;;;13.65;6.50;;;;;;;;;;5002211;28;20791;-72
2021/10/26 09:52:21;;;;;;;18.15;7.78;;;;;;;;;;5010208;28;20025;-72
2021/10/26 09:54:49;;;;;;;16.63;7.45;;;;;;;;;;5007436;28;20061;-71
2021/10/26 09:57:16;;;;;;;22.63;8.77;;;;;;;;;;5008700;28;20026;-72
2021/10/26 09:59:46;;;;;;;15.85;8.02;;;;;;;;;;5007710;28;20076;-72
2021/10/26 10:02:17;;;;;;;16.77;7.20;;;;;;;;;;5011570;28;20048;-71
2021/10/26 10:04:43;;;;;;;13.93;7.63;;;;;;;;;;5004268;28;20407;-71
2021/10/26 10:07:10;;;;;;;16.05;7.88;;;;;;;;;;5010316;28;20034;-72
2021/10/26 10:09:36;;;;;;;18.05;7.80;;;;;;;;;;5008297;28;20707;-72
2021/10/26 10:12:04;;;;;;;17.73;7.68;;;;;;;;;;5012227;28;20030;-71
2021/10/26 10:14:30;;;;;;;14.25;6.90;;;;;;;;;;5006866;28;20455;-72
2021/10/26 10:16:57;;;;;;;13.23;6.75;;;;;;;;;;5011012;28;20034;-71
2021/10/26 10:19:25;;;;;;;15.98;6.38;;;;;;;;;;5006257;28;20038;-72
2021/10/26 10:21:51;;;;;;;11.30;6.05;;;;;;;;;;5012354;28;20034;-72
2021/10/26 10:24:18;;;;;;;11.60;6.63;;;;;;;;;;4990677;28;20068;-71
2021/10/26 10:26:49;;;;;;;11.13;5.50;;;;;;;;;;5009496;28;20108;-72
2021/10/26 10:29:15;;;;;;;11.20;4.97;;;;;;;;;;5004901;28;20040;-72
2021/10/26 10:31:42;;;;;;;12.52;5.32;;;;;;;;;;5012856;28;20038;-72
2021/10/26 10:34:09;;;;;;;10.70;4.85;;;;;;;;;;5007759;28;20025;-72
2021/10/26 10:36:40;;;;;;;11.13;5.10;;;;;;;;;;5010622;28;20038;-72
2021/10/26 10:39:07;;;;;;;7.70;3.60;;;;;;;;;;5007093;28;20116;-71
2021/10/26 10:41:34;;;;;;;6.20;3.08;;;;;;;;;;5010272;28;20144;-72
2021/10/26 10:44:30;;;;;;;9.43;3.13;;;;;;;;;;5007979;28;20114;-71
2021/10/26 10:47:02;;;;;;;8.18;2.97;;;;;;;;;;5012743;28;20064;-72
2021/10/26 10:49:37;;;;;;;5.93;2.67;;;;;;;;;;5002456;28;20033;-72
2021/10/26 10:52:10;;;;;;;8.32;2.72;;;;;;;;;;5010917;28;20026;-71
2021/10/26 10:54:41;;;;;;;7.15;2.90;;;;;;;;;;5005415;28;20415;-72
2021/10/26 10:57:17;;;;;;;7.55;2.65;;;;;;;;;;4989523;28;20432;-72
2021/10/26 10:59:48;;;;;;;4.82;2.53;;;;;;;;;;5005517;28;20050;-72
2021/10/26 11:02:18;;;;;;;6.85;2.83;;;;;;;;;;5009552;28;20652;-72
2021/10/26 11:04:44;;;;;;;6.45;2.63;;;;;;;;;;5002320;28;20137;-72
2021/10/26 11:07:10;;;;;;;5.20;2.30;;;;;;;;;;5010803;28;20130;-72
2021/10/26 11:09:39;;;;;;;6.88;2.17;;;;;;;;;;5007692;28;20128;-71
2021/10/26 11:12:12;;;;;;;6.13;2.40;;;;;;;;;;5014994;28;20021;-71
2021/10/26 11:14:54;;;;;;;6.40;2.53;;;;;;;;;;5007981;28;20030;-72
2021/10/26 11:17:36;;;;;;;7.57;2.78;;;;;;;;;;5009836;28;20068;-72
2021/10/26 11:20:12;;;;;;;8.15;2.88;;;;;;;;;;5006091;28;20025;-72
2021/10/26 11:22:50;;;;;;;7.40;3.53;;;;;;;;;;5010024;28;20913;-72
2021/10/26 11:25:36;;;;;;;4.68;2.33;;;;;;;;;;5007027;28;20053;-72
2021/10/26 11:28:18;;;;;;;7.63;2.42;;;;;;;;;;4973633;28;20045;-72
2021/10/26 11:30:46;;;;;;;8.82;2.72;;;;;;;;;;5004003;28;20775;-71
2021/10/26 11:33:12;;;;;;;6.32;2.30;;;;;;;;;;4990921;28;20061;-72
2021/10/26 11:35:41;;;;;;;5.85;2.30;;;;;;;;;;5006288;28;20042;-73
2021/10/26 11:38:14;;;;;;;11.25;2.92;;;;;;;;;;5011451;28;20112;-72
2021/10/26 11:40:49;;;;;;;8.88;3.10;;;;;;;;;;5003884;28;20038;-71
2021/10/26 11:43:16;;;;;;;9.15;2.90;;;;;;;;;;5008604;28;20087;-72
2021/10/26 11:45:59;;;;;;;6.07;2.35;;;;;;;;;;5006431;28;20034;-72
2021/10/26 11:48:24;;;;;;;;;;;;;;;;;;5009767;28;20056;-72
2021/10/26 11:50:51;;;;;;;6.18;2.03;;;;;;;;;;4985223;28;19913;-71
2021/10/26 11:53:28;;;;;;;6.00;2.30;;;;;;;;;;5006611;28;20558;-72
2021/10/26 11:55:54;;;;;;;9.27;2.90;;;;;;;;;;5003587;28;20034;-72
2021/10/26 11:58:20;;;;;;;7.05;2.08;;;;;;;;;;5008195;28;20058;-72
2021/10/26 12:00:46;;;;;;;5.75;2.35;;;;;;;;;;5006070;28;20036;-72
2021/10/26 12:03:12;;;;;;;8.82;2.50;;;;;;;;;;5008421;28;20038;-72
2021/10/26 12:05:38;;;;;;;7.03;1.70;;;;;;;;;;5005498;28;20137;-72
2021/10/26 12:08:04;;;;;;;5.18;1.67;;;;;;;;;;5013062;28;20108;-72
2021/10/26 12:10:30;;;;;;;6.60;2.22;;;;;;;;;;5004991;28;20042;-72
2021/10/26 12:12:56;;;;;;;4.95;1.85;;;;;;;;;;5008882;28;20018;-72
2021/10/26 12:15:22;;;;;;;7.40;1.35;;;;;;;;;;5006546;28;20030;-72
2021/10/26 12:17:48;;;;;;;5.70;2.10;;;;;;;;;;5008485;28;20028;-72
2021/10/26 12:20:19;;;;;;;5.05;1.52;;;;;;;;;;5008065;28;20038;-72
2021/10/26 12:22:59;;;;;;;5.65;1.80;;;;;;;;;;5009709;28;20109;-72
2021/10/26 12:25:27;;;;;;;5.78;2.35;;;;;;;;;;5006214;28;20586;-72
2021/10/26 12:27:57;;;;;;;8.95;3.00;;;;;;;;;;5007904;28;20021;-72
2021/10/26 12:30:26;;;;;;;7.25;2.72;;;;;;;;;;5003908;28;20036;-73
2021/10/26 12:32:58;;;;;;;6.38;3.58;;;;;;;;;;5005455;28;20538;-72
2021/10/26 12:35:25;;;;;;;9.00;3.58;;;;;;;;;;5004477;28;20053;-73
2021/10/26 12:38:04;;;;;;;7.82;3.13;;;;;;;;;;5005749;28;20032;-72
2021/10/26 12:40:38;;;;;;;10.82;4.47;;;;;;;;;;5006764;28;20387;-72
2021/10/26 12:43:05;;;;;;;12.30;4.40;;;;;;;;;;5007613;28;20055;-72
2021/10/26 12:45:36;;;;;;;7.47;3.97;;;;;;;;;;5009500;28;20674;-72
2021/10/26 12:48:06;;;;;;;8.50;4.57;;;;;;;;;;5006976;28;20531;-72
2021/10/26 12:50:38;;;;;;;8.50;4.07;;;;;;;;;;5009933;28;20522;-72
2021/10/26 12:53:10;;;;;;;8.90;3.40;;;;;;;;;;5002681;28;20050;-72
2021/10/26 12:56:02;;;;;;;6.97;3.13;;;;;;;;;;5005128;28;20032;-72
2021/10/26 12:58:31;;;;;;;7.65;2.55;;;;;;;;;;4990612;28;20053;-72
2021/10/26 13:00:57;;;;;;;6.13;2.45;;;;;;;;;;4997443;28;20034;-72
2021/10/26 13:03:23;;;;;;;8.90;3.17;;;;;;;;;;5011639;28;20044;-72
2021/10/26 13:05:53;;;;;;;6.72;2.10;;;;;;;;;;5008401;28;20034;-72
2021/10/26 13:08:20;;;;;;;6.20;1.83;;;;;;;;;;5008987;28;20077;-72
2021/10/26 13:10:47;;;;;;;6.97;1.58;;;;;;;;;;5010319;28;20109;-72
2021/10/26 13:13:14;;;;;;;6.10;2.05;;;;;;;;;;5008918;28;21145;-72
2021/10/26 13:15:44;;;;;;;5.18;2.08;;;;;;;;;;5010360;28;20091;-71
2021/10/26 13:18:12;;;;;;;6.57;1.90;;;;;;;;;;5008071;28;20084;-71
2021/10/26 13:20:47;;;;;;;4.78;1.55;;;;;;;;;;5011158;28;20483;-72
2021/10/26 13:23:30;;;;;;;3.72;1.50;;;;;;;;;;5007590;28;20034;-71
2021/10/26 13:25:59;;;;;;;4.18;1.27;;;;;;;;;;5012746;28;20096;-72
2021/10/26 13:28:27;;;;;;;5.07;1.35;;;;;;;;;;5007948;28;20490;-72
2021/10/26 13:30:54;;;;;;;6.05;1.58;;;;;;;;;;5011743;28;20034;-72
2021/10/26 13:33:31;;;;;;;5.93;1.40;;;;;;;;;;5009078;28;20125;-71
2021/10/26 13:35:57;;;;;;;4.20;1.20;;;;;;;;;;5011800;28;20121;-72
2021/10/26 13:38:25;;;;;;;6.50;1.35;;;;;;;;;;5006776;28;20615;-71
2021/10/26 13:40:51;;;;;;;7.28;1.10;;;;;;;;;;5013277;28;20036;-72
2021/10/26 13:43:18;;;;;;;4.28;1.27;;;;;;;;;;5009609;28;20435;-72
2021/10/26 13:45:45;;;;;;;3.05;1.00;;;;;;;;;;5005934;28;20034;-71
2021/10/26 13:48:13;;;;;;;3.42;1.17;;;;;;;;;;5009880;28;20034;-72
2021/10/26 13:50:41;;;;;;;4.18;1.15;;;;;;;;;;5012376;28;20105;-72
2021/10/26 13:53:09;;;;;;;4.70;1.40;;;;;;;;;;5008701;28;20032;-72
2021/10/26 13:55:35;;;;;;;7.65;1.48;;;;;;;;;;5012225;28;20032;-72
2021/10/26 13:58:01;;;;;;;6.07;1.30;;;;;;;;;;5008334;28;20042;-72
2021/10/26 14:00:27;;;;;;;5.57;1.50;;;;;;;;;;5012903;28;20042;-72
2021/10/26 14:02:53;;;;;;;9.00;1.95;;;;;;;;;;5008523;28;20041;-72
2021/10/26 14:05:19;;;;;;;5.20;1.27;;;;;;;;;;5013566;28;20383;-71
2021/10/26 14:07:45;;;;;;;5.05;1.73;;;;;;;;;;5008372;28;20121;-72
2021/10/26 14:10:12;;;;;;;5.05;1.35;;;;;;;;;;5010055;28;20057;-72
2021/10/26 14:12:42;;;;;;;5.90;1.48;;;;;;;;;;5005626;28;20030;-72
2021/10/26 14:15:08;;;;;;;4.32;1.13;;;;;;;;;;5012101;28;20156;-72
2021/10/26 14:17:35;;;;;;;6.18;1.42;;;;;;;;;;5007799;28;20030;-72
2021/10/26 14:20:01;;;;;;;4.72;1.35;;;;;;;;;;5010308;28;20408;-71
2021/10/26 14:22:28;;;;;;;5.00;1.30;;;;;;;;;;5005850;28;20683;-72
2021/10/26 14:24:54;;;;;;;4.07;1.35;;;;;;;;;;5010049;28;20065;-72
2021/10/26 14:27:20;;;;;;;8.35;1.75;;;;;;;;;;5005710;28;20081;-72
2021/10/26 14:29:46;;;;;;;7.20;2.28;;;;;;;;;;4987314;28;20057;-72
2021/10/26 14:32:12;;;;;;;5.90;1.88;;;;;;;;;;5008295;28;20455;-71
2021/10/26 14:34:39;;;;;;;4.47;1.88;;;;;;;;;;5009365;28;20037;-72
2021/10/26 14:37:17;;;;;;;5.13;1.98;;;;;;;;;;5005592;28;20042;-71
2021/10/26 14:56:08;;;;;;;6.43;1.55;;;;;;;;;;4985639;28;20372;-72
2021/10/26 14:58:37;;;;;;;7.68;1.60;;;;;;;;;;5007290;28;20533;-72
2021/10/26 15:01:04;;;;;;;5.82;1.42;;;;;;;;;;5011530;28;20372;-72